sensor_id;sensor_type;location;lat;lon;timestamp;pressure;altitude;pressure_sealevel;temperature;humidity
7075;BME280;3578;51.568;6.932;2023-08-30T00:01:11;51703.25;;;-144.14;100.00
7075;BME280;3578;51.568;6.932;2023-08-30T00:03:38;51683.22;;;-144.14;100.00
7075;BME280;3578;51.568;6.932;2023-08-30T00:06:06;51677.22;;;-144.14;100.00
7075;BME280;3578;51.568;6.932;2023-08-30T00:08:33;51703.25;;;-144.14;100.00
7075;BME280;3578;51.568;6.932;2023-08-30T00:11:00;51629.16;;;-144.14;100.00
7075;BME280;3578;51.568;6.932;2023-08-30T00:13:31;51651.19;;;-144.14;100.00
7075;BME280;3578;51.568;6.932;2023-08-30T00:15:59;51695.25;;;-144.14;100.00
7075;BME280;3578;51.568;6.932;2023-08-30T00:18:26;51677.22;;;-144.14;100.00
7075;BME280;3578;51.568;6.932;2023-08-30T00:20:53;51679.22;;;-144.14;100.00
7075;BME280;3578;51.568;6.932;2023-08-30T00:23:22;51679.22;;;-144.14;100.00
7075;BME280;3578;51.568;6.932;2023-08-30T00:25:49;51667.22;;;-144.14;100.00
7075;BME280;3578;51.568;6.932;2023-08-30T00:28:16;51673.22;;;-144.14;100.00
7075;BME280;3578;51.568;6.932;2023-08-30T00:30:44;51669.22;;;-144.14;100.00
7075;BME280;3578;51.568;6.932;2023-08-30T00:33:11;51659.19;;;-144.14;100.00
7075;BME280;3578;51.568;6.932;2023-08-30T00:35:38;51651.19;;;-144.14;100.00
7075;BME280;3578;51.568;6.932;2023-08-30T00:38:05;51619.13;;;-144.14;100.00
7075;BME280;3578;51.568;6.932;2023-08-30T00:40:38;51619.13;;;-144.14;100.00
7075;BME280;3578;51.568;6.932;2023-08-30T00:43:06;51651.19;;;-144.14;100.00
7075;BME280;3578;51.568;6.932;2023-08-30T00:45:34;51655.19;;;-144.14;100.00
7075;BME280;3578;51.568;6.932;2023-08-30T00:48:03;51653.19;;;-144.14;100.00
7075;BME280;3578;51.568;6.932;2023-08-30T00:50:31;51649.19;;;-144.14;100.00
7075;BME280;3578;51.568;6.932;2023-08-30T00:52:58;51641.16;;;-144.14;100.00
7075;BME280;3578;51.568;6.932;2023-08-30T00:55:25;51669.22;;;-144.14;100.00
7075;BME280;3578;51.568;6.932;2023-08-30T00:57:51;51663.19;;;-144.14;100.00
7075;BME280;3578;51.568;6.932;2023-08-30T01:00:18;51647.19;;;-144.14;100.00
7075;BME280;3578;51.568;6.932;2023-08-30T01:02:46;51691.25;;;-144.14;100.00
7075;BME280;3578;51.568;6.932;2023-08-30T01:05:14;51647.19;;;-144.14;100.00
7075;BME280;3578;51.568;6.932;2023-08-30T01:07:41;51625.16;;;-144.14;100.00
7075;BME280;3578;51.568;6.932;2023-08-30T01:10:09;51691.25;;;-144.14;100.00
7075;BME280;3578;51.568;6.932;2023-08-30T01:12:40;51639.16;;;-144.14;100.00
7075;BME280;3578;51.568;6.932;2023-08-30T01:15:14;51635.16;;;-144.14;100.00
7075;BME280;3578;51.568;6.932;2023-08-30T01:17:43;51647.19;;;-144.14;100.00
7075;BME280;3578;51.568;6.932;2023-08-30T01:20:11;51639.16;;;-144.14;100.00
7075;BME280;3578;51.568;6.932;2023-08-30T01:22:53;51639.16;;;-144.14;100.00
7075;BME280;3578;51.568;6.932;2023-08-30T01:25:32;51595.09;;;-144.14;100.00
7075;BME280;3578;51.568;6.932;2023-08-30T01:28:05;51625.16;;;-144.14;100.00
7075;BME280;3578;51.568;6.932;2023-08-30T01:30:34;51510.97;;;-144.14;100.00
7075;BME280;3578;51.568;6.932;2023-08-30T01:33:04;51679.22;;;-144.14;100.00
7075;BME280;3578;51.568;6.932;2023-08-30T01:35:33;51615.13;;;-144.14;100.00
7075;BME280;3578;51.568;6.932;2023-08-30T01:38:03;51599.09;;;-144.14;100.00
7075;BME280;3578;51.568;6.932;2023-08-30T01:40:35;51567.06;;;-144.14;100.00
7075;BME280;3578;51.568;6.932;2023-08-30T01:43:06;51563.03;;;-144.14;100.00
7075;BME280;3578;51.568;6.932;2023-08-30T01:45:35;51579.06;;;-144.14;100.00
7075;BME280;3578;51.568;6.932;2023-08-30T01:48:04;51573.06;;;-144.14;100.00
7075;BME280;3578;51.568;6.932;2023-08-30T01:50:32;51581.06;;;-144.14;100.00
7075;BME280;3578;51.568;6.932;2023-08-30T01:53:00;51559.03;;;-144.14;100.00
7075;BME280;3578;51.568;6.932;2023-08-30T01:55:29;51545.00;;;-144.14;100.00
7075;BME280;3578;51.568;6.932;2023-08-30T01:57:57;51587.09;;;-144.14;100.00
7075;BME280;3578;51.568;6.932;2023-08-30T02:00:25;51579.06;;;-144.14;100.00
7075;BME280;3578;51.568;6.932;2023-08-30T02:02:52;51579.06;;;-144.14;100.00
7075;BME280;3578;51.568;6.932;2023-08-30T02:05:19;51577.06;;;-144.14;100.00
7075;BME280;3578;51.568;6.932;2023-08-30T02:07:54;51587.09;;;-144.14;100.00
7075;BME280;3578;51.568;6.932;2023-08-30T02:10:30;51593.09;;;-144.14;100.00
7075;BME280;3578;51.568;6.932;2023-08-30T02:12:59;51581.06;;;-144.14;100.00
7075;BME280;3578;51.568;6.932;2023-08-30T02:15:30;51547.03;;;-144.14;100.00
7075;BME280;3578;51.568;6.932;2023-08-30T02:17:59;51577.06;;;-144.14;100.00
7075;BME280;3578;51.568;6.932;2023-08-30T02:20:26;51559.03;;;-144.14;100.00
7075;BME280;3578;51.568;6.932;2023-08-30T02:22:58;51587.09;;;-144.14;100.00
7075;BME280;3578;51.568;6.932;2023-08-30T02:25:25;51575.06;;;-144.14;100.00
7075;BME280;3578;51.568;6.932;2023-08-30T02:27:52;51577.06;;;-144.14;100.00
7075;BME280;3578;51.568;6.932;2023-08-30T02:30:19;51601.09;;;-144.14;100.00
7075;BME280;3578;51.568;6.932;2023-08-30T02:32:47;51609.13;;;-144.14;100.00
7075;BME280;3578;51.568;6.932;2023-08-30T02:35:14;51621.13;;;-144.14;100.00
7075;BME280;3578;51.568;6.932;2023-08-30T02:37:41;51579.06;;;-144.14;100.00
7075;BME280;3578;51.568;6.932;2023-08-30T02:40:10;51563.03;;;-144.14;100.00
7075;BME280;3578;51.568;6.932;2023-08-30T02:42:37;51587.09;;;-144.14;100.00
7075;BME280;3578;51.568;6.932;2023-08-30T02:45:05;51587.09;;;-144.14;100.00
7075;BME280;3578;51.568;6.932;2023-08-30T02:47:32;51599.09;;;-144.14;100.00
7075;BME280;3578;51.568;6.932;2023-08-30T02:50:01;51587.09;;;-144.14;100.00
7075;BME280;3578;51.568;6.932;2023-08-30T02:52:28;51607.13;;;-144.14;100.00
7075;BME280;3578;51.568;6.932;2023-08-30T02:54:55;51615.13;;;-144.14;100.00
7075;BME280;3578;51.568;6.932;2023-08-30T02:57:22;51569.06;;;-144.14;100.00
7075;BME280;3578;51.568;6.932;2023-08-30T02:59:49;51553.03;;;-144.14;100.00
7075;BME280;3578;51.568;6.932;2023-08-30T03:02:16;51563.03;;;-144.14;100.00
7075;BME280;3578;51.568;6.932;2023-08-30T03:04:43;51583.06;;;-144.14;100.00
7075;BME280;3578;51.568;6.932;2023-08-30T03:07:11;51591.09;;;-144.14;100.00
7075;BME280;3578;51.568;6.932;2023-08-30T03:09:38;51522.97;;;-144.14;100.00
7075;BME280;3578;51.568;6.932;2023-08-30T03:12:06;51591.09;;;-144.14;100.00
7075;BME280;3578;51.568;6.932;2023-08-30T03:14:33;51553.03;;;-144.14;100.00
7075;BME280;3578;51.568;6.932;2023-08-30T03:17:00;51593.09;;;-144.14;100.00
7075;BME280;3578;51.568;6.932;2023-08-30T03:19:27;51579.06;;;-144.14;100.00
7075;BME280;3578;51.568;6.932;2023-08-30T03:21:54;51573.06;;;-144.14;100.00
7075;BME280;3578;51.568;6.932;2023-08-30T03:24:22;51575.06;;;-144.14;100.00
7075;BME280;3578;51.568;6.932;2023-08-30T03:26:50;51613.13;;;-144.14;100.00
7075;BME280;3578;51.568;6.932;2023-08-30T03:29:17;51607.13;;;-144.14;100.00
7075;BME280;3578;51.568;6.932;2023-08-30T03:31:44;51607.13;;;-144.14;100.00
7075;BME280;3578;51.568;6.932;2023-08-30T03:34:11;51583.06;;;-144.14;100.00
7075;BME280;3578;51.568;6.932;2023-08-30T03:36:38;51581.06;;;-144.14;100.00
7075;BME280;3578;51.568;6.932;2023-08-30T03:39:05;51603.09;;;-144.14;100.00
7075;BME280;3578;51.568;6.932;2023-08-30T03:41:33;51589.09;;;-144.14;100.00
7075;BME280;3578;51.568;6.932;2023-08-30T03:44:00;51591.09;;;-144.14;100.00
7075;BME280;3578;51.568;6.932;2023-08-30T03:46:27;51599.09;;;-144.14;100.00
7075;BME280;3578;51.568;6.932;2023-08-30T03:48:54;51579.06;;;-144.14;100.00
7075;BME280;3578;51.568;6.932;2023-08-30T03:51:22;51573.06;;;-144.14;100.00
7075;BME280;3578;51.568;6.932;2023-08-30T03:53:49;51545.00;;;-144.14;100.00
7075;BME280;3578;51.568;6.932;2023-08-30T03:56:16;51575.06;;;-144.14;100.00
7075;BME280;3578;51.568;6.932;2023-08-30T03:58:45;51587.09;;;-144.14;100.00
7075;BME280;3578;51.568;6.932;2023-08-30T04:01:11;51607.13;;;-144.14;100.00
7075;BME280;3578;51.568;6.932;2023-08-30T04:03:38;51561.03;;;-144.14;100.00
7075;BME280;3578;51.568;6.932;2023-08-30T04:06:05;51549.03;;;-144.14;100.00
7075;BME280;3578;51.568;6.932;2023-08-30T04:08:32;51571.06;;;-144.14;100.00
7075;BME280;3578;51.568;6.932;2023-08-30T04:10:59;51547.03;;;-144.14;100.00
7075;BME280;3578;51.568;6.932;2023-08-30T04:13:26;51543.00;;;-144.14;100.00
7075;BME280;3578;51.568;6.932;2023-08-30T04:15:55;51549.03;;;-144.14;100.00
7075;BME280;3578;51.568;6.932;2023-08-30T04:18:24;51555.03;;;-144.14;100.00
7075;BME280;3578;51.568;6.932;2023-08-30T04:20:51;51551.03;;;-144.14;100.00
7075;BME280;3578;51.568;6.932;2023-08-30T04:23:18;51533.00;;;-144.14;100.00
7075;BME280;3578;51.568;6.932;2023-08-30T04:25:45;51527.00;;;-144.14;100.00
7075;BME280;3578;51.568;6.932;2023-08-30T04:28:12;51537.00;;;-144.14;100.00
7075;BME280;3578;51.568;6.932;2023-08-30T04:30:39;51518.97;;;-144.14;100.00
7075;BME280;3578;51.568;6.932;2023-08-30T04:33:07;51531.00;;;-144.14;100.00
7075;BME280;3578;51.568;6.932;2023-08-30T04:35:34;51539.00;;;-144.14;100.00
7075;BME280;3578;51.568;6.932;2023-08-30T04:38:02;51539.00;;;-144.14;100.00
7075;BME280;3578;51.568;6.932;2023-08-30T04:40:29;51569.06;;;-144.14;100.00
7075;BME280;3578;51.568;6.932;2023-08-30T04:42:58;51518.97;;;-144.14;100.00
7075;BME280;3578;51.568;6.932;2023-08-30T04:45:25;51537.00;;;-144.14;100.00
7075;BME280;3578;51.568;6.932;2023-08-30T04:47:52;51563.03;;;-144.14;100.00
7075;BME280;3578;51.568;6.932;2023-08-30T04:50:20;51547.03;;;-144.14;100.00
7075;BME280;3578;51.568;6.932;2023-08-30T04:52:47;51527.00;;;-144.14;100.00
7075;BME280;3578;51.568;6.932;2023-08-30T04:55:14;51547.03;;;-144.14;100.00
7075;BME280;3578;51.568;6.932;2023-08-30T04:57:41;51551.03;;;-144.14;100.00
7075;BME280;3578;51.568;6.932;2023-08-30T05:00:11;51559.03;;;-144.14;100.00
7075;BME280;3578;51.568;6.932;2023-08-30T05:02:39;51547.03;;;-144.14;100.00
7075;BME280;3578;51.568;6.932;2023-08-30T05:05:09;51567.06;;;-144.14;100.00
7075;BME280;3578;51.568;6.932;2023-08-30T05:07:37;51571.06;;;-144.14;100.00
7075;BME280;3578;51.568;6.932;2023-08-30T05:10:06;51561.03;;;-144.14;100.00
7075;BME280;3578;51.568;6.932;2023-08-30T05:12:34;51565.06;;;-144.14;100.00
7075;BME280;3578;51.568;6.932;2023-08-30T05:15:01;51551.03;;;-144.14;100.00
7075;BME280;3578;51.568;6.932;2023-08-30T05:17:29;51587.09;;;-144.14;100.00
7075;BME280;3578;51.568;6.932;2023-08-30T05:19:56;51545.00;;;-144.14;100.00
7075;BME280;3578;51.568;6.932;2023-08-30T05:22:23;51585.09;;;-144.14;100.00
7075;BME280;3578;51.568;6.932;2023-08-30T05:24:51;51561.03;;;-144.14;100.00
7075;BME280;3578;51.568;6.932;2023-08-30T05:27:18;51587.09;;;-144.14;100.00
7075;BME280;3578;51.568;6.932;2023-08-30T05:29:45;51587.09;;;-144.14;100.00
7075;BME280;3578;51.568;6.932;2023-08-30T05:32:12;51567.06;;;-144.14;100.00
7075;BME280;3578;51.568;6.932;2023-08-30T05:34:39;51593.09;;;-144.14;100.00
7075;BME280;3578;51.568;6.932;2023-08-30T05:37:06;51571.06;;;-144.14;100.00
7075;BME280;3578;51.568;6.932;2023-08-30T05:39:34;51571.06;;;-144.14;100.00
7075;BME280;3578;51.568;6.932;2023-08-30T05:42:01;51527.00;;;-144.14;100.00
7075;BME280;3578;51.568;6.932;2023-08-30T05:44:28;51559.03;;;-144.14;100.00
7075;BME280;3578;51.568;6.932;2023-08-30T05:46:55;51575.06;;;-144.14;100.00
7075;BME280;3578;51.568;6.932;2023-08-30T05:49:22;51551.03;;;-144.14;100.00
7075;BME280;3578;51.568;6.932;2023-08-30T05:51:49;51500.94;;;-144.14;100.00
7075;BME280;3578;51.568;6.932;2023-08-30T05:54:16;51527.00;;;-144.14;100.00
7075;BME280;3578;51.568;6.932;2023-08-30T05:56:43;51518.97;;;-144.14;100.00
7075;BME280;3578;51.568;6.932;2023-08-30T05:59:12;51516.97;;;-144.14;100.00
7075;BME280;3578;51.568;6.932;2023-08-30T06:01:38;51514.97;;;-144.14;100.00
7075;BME280;3578;51.568;6.932;2023-08-30T06:04:07;51531.00;;;-144.14;100.00
7075;BME280;3578;51.568;6.932;2023-08-30T06:06:33;51498.94;;;-144.14;100.00
7075;BME280;3578;51.568;6.932;2023-08-30T06:09:00;51490.94;;;-144.14;100.00
7075;BME280;3578;51.568;6.932;2023-08-30T06:11:27;51518.97;;;-144.14;100.00
7075;BME280;3578;51.568;6.932;2023-08-30T06:13:54;51514.97;;;-144.14;100.00
7075;BME280;3578;51.568;6.932;2023-08-30T06:16:23;51543.00;;;-144.14;100.00
7075;BME280;3578;51.568;6.932;2023-08-30T06:18:50;51555.03;;;-144.14;100.00
7075;BME280;3578;51.568;6.932;2023-08-30T06:21:17;51535.00;;;-144.14;100.00
7075;BME280;3578;51.568;6.932;2023-08-30T06:23:43;51516.97;;;-144.14;100.00
7075;BME280;3578;51.568;6.932;2023-08-30T06:26:10;51553.03;;;-144.14;100.00
7075;BME280;3578;51.568;6.932;2023-08-30T06:28:37;51541.00;;;-144.14;100.00
7075;BME280;3578;51.568;6.932;2023-08-30T06:31:04;51549.03;;;-144.14;100.00
7075;BME280;3578;51.568;6.932;2023-08-30T06:33:33;51512.97;;;-144.14;100.00
7075;BME280;3578;51.568;6.932;2023-08-30T06:36:00;51512.97;;;-144.14;100.00
7075;BME280;3578;51.568;6.932;2023-08-30T06:38:26;51506.97;;;-144.14;100.00
7075;BME280;3578;51.568;6.932;2023-08-30T06:40:53;51539.00;;;-144.14;100.00
7075;BME280;3578;51.568;6.932;2023-08-30T06:43:20;51537.00;;;-144.14;100.00
7075;BME280;3578;51.568;6.932;2023-08-30T06:45:47;51565.06;;;-144.14;100.00
7075;BME280;3578;51.568;6.932;2023-08-30T06:48:14;51553.03;;;-144.14;100.00
7075;BME280;3578;51.568;6.932;2023-08-30T06:50:42;51543.00;;;-144.14;100.00
7075;BME280;3578;51.568;6.932;2023-08-30T06:53:09;51539.00;;;-144.14;100.00
7075;BME280;3578;51.568;6.932;2023-08-30T06:55:36;51539.00;;;-144.14;100.00
7075;BME280;3578;51.568;6.932;2023-08-30T06:58:05;51362.75;;;-144.14;100.00
7075;BME280;3578;51.568;6.932;2023-08-30T07:00:32;51547.03;;;-144.14;100.00
7075;BME280;3578;51.568;6.932;2023-08-30T07:02:59;51579.06;;;-144.14;100.00
7075;BME280;3578;51.568;6.932;2023-08-30T07:05:26;51549.03;;;-144.14;100.00
7075;BME280;3578;51.568;6.932;2023-08-30T07:07:54;51587.09;;;-144.14;100.00
7075;BME280;3578;51.568;6.932;2023-08-30T07:10:21;51599.09;;;-144.14;100.00
7075;BME280;3578;51.568;6.932;2023-08-30T07:12:49;51623.13;;;-144.14;100.00
7075;BME280;3578;51.568;6.932;2023-08-30T07:15:16;51627.16;;;-144.14;100.00
7075;BME280;3578;51.568;6.932;2023-08-30T07:17:43;51653.19;;;-144.14;100.00
7075;BME280;3578;51.568;6.932;2023-08-30T07:20:11;51705.28;;;-144.14;100.00
7075;BME280;3578;51.568;6.932;2023-08-30T07:22:38;51707.28;;;-144.14;100.00
7075;BME280;3578;51.568;6.932;2023-08-30T07:25:07;51787.41;;;-144.14;100.00
7075;BME280;3578;51.568;6.932;2023-08-30T07:27:35;51737.31;;;-144.14;100.00
7075;BME280;3578;51.568;6.932;2023-08-30T07:30:04;51797.41;;;-144.14;100.00
7075;BME280;3578;51.568;6.932;2023-08-30T07:32:31;51897.56;;;-144.14;100.00
7075;BME280;3578;51.568;6.932;2023-08-30T07:34:58;52019.78;;;-144.14;100.00
7075;BME280;3578;51.568;6.932;2023-08-30T07:37:25;52228.13;;;-144.14;92.85
7075;BME280;3578;51.568;6.932;2023-08-30T07:39:52;52644.88;;;-144.14;84.63
7075;BME280;3578;51.568;6.932;2023-08-30T07:42:21;53298.16;;;-144.14;68.42
7075;BME280;3578;51.568;6.932;2023-08-30T07:44:48;53404.38;;;-144.14;64.77
7075;BME280;3578;51.568;6.932;2023-08-30T07:47:16;53113.78;;;-144.14;76.30
7075;BME280;3578;51.568;6.932;2023-08-30T07:49:43;52921.41;;;-144.14;80.40
7075;BME280;3578;51.568;6.932;2023-08-30T07:52:10;52777.13;;;-144.14;84.96
7075;BME280;3578;51.568;6.932;2023-08-30T07:54:39;52642.88;;;-144.14;88.18
7075;BME280;3578;51.568;6.932;2023-08-30T07:57:06;52596.81;;;-144.14;88.45
7075;BME280;3578;51.568;6.932;2023-08-30T07:59:35;52528.69;;;-144.14;90.08
7075;BME280;3578;51.568;6.932;2023-08-30T08:02:03;52538.69;;;-144.14;91.56
7075;BME280;3578;51.568;6.932;2023-08-30T08:04:32;52566.75;;;-144.14;89.32
7075;BME280;3578;51.568;6.932;2023-08-30T08:06:59;52494.63;;;-144.14;90.71
7075;BME280;3578;51.568;6.932;2023-08-30T08:09:26;52508.63;;;-144.14;89.48
7075;BME280;3578;51.568;6.932;2023-08-30T08:11:53;52416.47;;;-144.14;91.80
7075;BME280;3578;51.568;6.932;2023-08-30T08:14:22;52520.66;;;-144.14;89.84
7075;BME280;3578;51.568;6.932;2023-08-30T08:16:50;52514.66;;;-144.14;89.14
7075;BME280;3578;51.568;6.932;2023-08-30T08:19:17;52484.59;;;-144.14;89.91
7075;BME280;3578;51.568;6.932;2023-08-30T08:21:45;52480.59;;;-144.14;89.01
7075;BME280;3578;51.568;6.932;2023-08-30T08:24:12;52496.63;;;-144.14;89.01
7075;BME280;3578;51.568;6.932;2023-08-30T08:26:39;52516.66;;;-144.14;89.26
7075;BME280;3578;51.568;6.932;2023-08-30T08:29:06;52468.56;;;-144.14;90.90
7075;BME280;3578;51.568;6.932;2023-08-30T08:31:33;52480.59;;;-144.14;90.98
7075;BME280;3578;51.568;6.932;2023-08-30T08:34:09;52436.50;;;-144.14;91.61
7075;BME280;3578;51.568;6.932;2023-08-30T08:36:37;52514.66;;;-144.14;91.29
7075;BME280;3578;51.568;6.932;2023-08-30T08:39:04;52490.59;;;-144.14;89.82
7075;BME280;3578;51.568;6.932;2023-08-30T08:41:38;52526.66;;;-144.14;89.80
7075;BME280;3578;51.568;6.932;2023-08-30T08:44:06;52568.75;;;-144.14;88.86
7075;BME280;3578;51.568;6.932;2023-08-30T08:46:35;52554.72;;;-144.14;87.96
7075;BME280;3578;51.568;6.932;2023-08-30T08:49:11;52612.81;;;-144.14;87.39
7075;BME280;3578;51.568;6.932;2023-08-30T08:51:39;52556.72;;;-144.14;88.73
7075;BME280;3578;51.568;6.932;2023-08-30T08:54:07;52574.75;;;-144.14;87.28
7075;BME280;3578;51.568;6.932;2023-08-30T08:56:36;52536.69;;;-144.14;86.72
7075;BME280;3578;51.568;6.932;2023-08-30T08:59:04;52500.63;;;-144.14;87.50
7075;BME280;3578;51.568;6.932;2023-08-30T09:01:34;52552.72;;;-144.14;87.76
7075;BME280;3578;51.568;6.932;2023-08-30T09:04:04;52560.72;;;-144.14;86.48
7075;BME280;3578;51.568;6.932;2023-08-30T09:06:33;52510.66;;;-144.14;87.31
7075;BME280;3578;51.568;6.932;2023-08-30T09:09:01;52536.69;;;-144.14;86.38
7075;BME280;3578;51.568;6.932;2023-08-30T09:11:30;52520.66;;;-144.14;87.07
7075;BME280;3578;51.568;6.932;2023-08-30T09:13:57;52474.56;;;-144.14;86.33
7075;BME280;3578;51.568;6.932;2023-08-30T09:16:24;52462.56;;;-144.14;87.68
7075;BME280;3578;51.568;6.932;2023-08-30T09:18:58;52408.47;;;-144.14;87.62
7075;BME280;3578;51.568;6.932;2023-08-30T09:21:26;52452.53;;;-144.14;89.25
7075;BME280;3578;51.568;6.932;2023-08-30T09:24:01;52468.56;;;-144.14;89.52
7075;BME280;3578;51.568;6.932;2023-08-30T09:26:31;52412.47;;;-144.14;89.73
7075;BME280;3578;51.568;6.932;2023-08-30T09:29:02;52400.44;;;-144.14;90.40
7075;BME280;3578;51.568;6.932;2023-08-30T09:31:33;52350.34;;;-144.14;93.87
7075;BME280;3578;51.568;6.932;2023-08-30T09:34:02;52320.31;;;-144.14;95.63
7075;BME280;3578;51.568;6.932;2023-08-30T09:36:36;52258.19;;;-144.14;99.82
7075;BME280;3578;51.568;6.932;2023-08-30T09:39:05;52232.16;;;-144.14;100.00
7075;BME280;3578;51.568;6.932;2023-08-30T09:41:33;52192.06;;;-144.14;100.00
7075;BME280;3578;51.568;6.932;2023-08-30T09:44:06;52180.06;;;-144.14;100.00
7075;BME280;3578;51.568;6.932;2023-08-30T09:46:44;52135.97;;;-144.14;100.00
7075;BME280;3578;51.568;6.932;2023-08-30T09:49:12;52105.94;;;-144.14;100.00
7075;BME280;3578;51.568;6.932;2023-08-30T09:51:41;52087.91;;;-144.14;100.00
7075;BME280;3578;51.568;6.932;2023-08-30T09:54:15;52023.78;;;-144.14;100.00
7075;BME280;3578;51.568;6.932;2023-08-30T09:56:43;52067.88;;;-144.14;100.00
7075;BME280;3578;51.568;6.932;2023-08-30T09:59:12;52065.84;;;-144.14;100.00
7075;BME280;3578;51.568;6.932;2023-08-30T10:01:41;52067.88;;;-144.14;100.00
7075;BME280;3578;51.568;6.932;2023-08-30T10:04:09;52037.81;;;-144.14;100.00
7075;BME280;3578;51.568;6.932;2023-08-30T10:06:38;51989.72;;;-144.14;100.00
7075;BME280;3578;51.568;6.932;2023-08-30T10:09:07;52001.75;;;-144.14;100.00
7075;BME280;3578;51.568;6.932;2023-08-30T10:11:37;51987.72;;;-144.14;100.00
7075;BME280;3578;51.568;6.932;2023-08-30T10:14:06;51997.75;;;-144.14;100.00
7075;BME280;3578;51.568;6.932;2023-08-30T10:16:40;51981.72;;;-144.14;100.00
7075;BME280;3578;51.568;6.932;2023-08-30T10:19:15;51923.63;;;-144.14;100.00
7075;BME280;3578;51.568;6.932;2023-08-30T10:21:43;51927.63;;;-144.14;100.00
7075;BME280;3578;51.568;6.932;2023-08-30T10:24:14;51913.59;;;-144.14;100.00
7075;BME280;3578;51.568;6.932;2023-08-30T10:26:46;51921.63;;;-144.14;100.00
7075;BME280;3578;51.568;6.932;2023-08-30T10:29:14;51895.56;;;-144.14;100.00
7075;BME280;3578;51.568;6.932;2023-08-30T10:31:43;51907.59;;;-144.14;100.00
7075;BME280;3578;51.568;6.932;2023-08-30T10:34:14;51895.56;;;-144.14;100.00
7075;BME280;3578;51.568;6.932;2023-08-30T10:36:43;51919.63;;;-144.14;100.00
7075;BME280;3578;51.568;6.932;2023-08-30T10:39:14;51879.56;;;-144.14;100.00
7075;BME280;3578;51.568;6.932;2023-08-30T10:41:56;51897.56;;;-144.14;100.00
7075;BME280;3578;51.568;6.932;2023-08-30T10:44:24;51857.50;;;-144.14;100.00
7075;BME280;3578;51.568;6.932;2023-08-30T10:46:55;51839.47;;;-144.14;100.00
7075;BME280;3578;51.568;6.932;2023-08-30T10:49:22;51851.50;;;-144.14;100.00
7075;BME280;3578;51.568;6.932;2023-08-30T10:51:56;51853.50;;;-144.14;100.00
7075;BME280;3578;51.568;6.932;2023-08-30T10:54:24;51849.50;;;-144.14;100.00
7075;BME280;3578;51.568;6.932;2023-08-30T10:56:57;51833.47;;;-144.14;100.00
7075;BME280;3578;51.568;6.932;2023-08-30T10:59:27;51809.44;;;-144.14;100.00
7075;BME280;3578;51.568;6.932;2023-08-30T11:01:55;51817.44;;;-144.14;100.00
7075;BME280;3578;51.568;6.932;2023-08-30T11:04:23;51827.47;;;-144.14;100.00
7075;BME280;3578;51.568;6.932;2023-08-30T11:06:51;51687.25;;;-144.14;100.00
7075;BME280;3578;51.568;6.932;2023-08-30T11:09:22;51835.47;;;-144.14;100.00
7075;BME280;3578;51.568;6.932;2023-08-30T11:11:51;51803.44;;;-144.14;100.00
7075;BME280;3578;51.568;6.932;2023-08-30T11:14:19;51811.44;;;-144.14;100.00
7075;BME280;3578;51.568;6.932;2023-08-30T11:16:46;51795.41;;;-144.14;100.00
7075;BME280;3578;51.568;6.932;2023-08-30T11:19:13;51749.34;;;-144.14;100.00
7075;BME280;3578;51.568;6.932;2023-08-30T11:21:44;51783.41;;;-144.14;100.00
7075;BME280;3578;51.568;6.932;2023-08-30T11:24:11;51745.34;;;-144.14;100.00
7075;BME280;3578;51.568;6.932;2023-08-30T11:26:39;51731.31;;;-144.14;100.00
7075;BME280;3578;51.568;6.932;2023-08-30T11:29:06;51765.38;;;-144.14;100.00
7075;BME280;3578;51.568;6.932;2023-08-30T11:31:35;51761.34;;;-144.14;100.00
7075;BME280;3578;51.568;6.932;2023-08-30T11:34:03;51777.38;;;-144.14;100.00
7075;BME280;3578;51.568;6.932;2023-08-30T11:36:32;51807.44;;;-144.14;100.00
7075;BME280;3578;51.568;6.932;2023-08-30T11:39:02;51757.34;;;-144.14;100.00
7075;BME280;3578;51.568;6.932;2023-08-30T11:41:30;51743.34;;;-144.14;100.00
7075;BME280;3578;51.568;6.932;2023-08-30T11:43:58;51759.34;;;-144.14;100.00
7075;BME280;3578;51.568;6.932;2023-08-30T11:46:26;51803.44;;;-144.14;100.00
7075;BME280;3578;51.568;6.932;2023-08-30T11:48:54;51759.34;;;-144.14;100.00
7075;BME280;3578;51.568;6.932;2023-08-30T11:51:21;51747.34;;;-144.14;100.00
7075;BME280;3578;51.568;6.932;2023-08-30T11:53:49;51761.34;;;-144.14;100.00
7075;BME280;3578;51.568;6.932;2023-08-30T11:56:16;51759.34;;;-144.14;100.00
7075;BME280;3578;51.568;6.932;2023-08-30T11:58:44;51745.34;;;-144.14;100.00
7075;BME280;3578;51.568;6.932;2023-08-30T12:01:12;51727.31;;;-144.14;100.00
7075;BME280;3578;51.568;6.932;2023-08-30T12:03:40;51727.31;;;-144.14;100.00
7075;BME280;3578;51.568;6.932;2023-08-30T12:06:11;51727.31;;;-144.14;100.00
7075;BME280;3578;51.568;6.932;2023-08-30T12:08:38;51717.28;;;-144.14;100.00
7075;BME280;3578;51.568;6.932;2023-08-30T12:11:05;51735.31;;;-144.14;100.00
7075;BME280;3578;51.568;6.932;2023-08-30T12:13:33;51745.34;;;-144.14;100.00
7075;BME280;3578;51.568;6.932;2023-08-30T12:16:02;51777.38;;;-144.14;100.00
7075;BME280;3578;51.568;6.932;2023-08-30T12:18:32;51739.31;;;-144.14;100.00
7075;BME280;3578;51.568;6.932;2023-08-30T12:21:01;51751.34;;;-144.14;100.00
7075;BME280;3578;51.568;6.932;2023-08-30T12:23:32;51731.31;;;-144.14;100.00
7075;BME280;3578;51.568;6.932;2023-08-30T12:26:02;51659.19;;;-144.14;100.00
7075;BME280;3578;51.568;6.932;2023-08-30T12:28:31;51701.25;;;-144.14;100.00
7075;BME280;3578;51.568;6.932;2023-08-30T12:30:59;51687.25;;;-144.14;100.00
7075;BME280;3578;51.568;6.932;2023-08-30T12:33:26;51689.25;;;-144.14;100.00
7075;BME280;3578;51.568;6.932;2023-08-30T12:35:54;51695.25;;;-144.14;100.00
7075;BME280;3578;51.568;6.932;2023-08-30T12:38:21;51697.25;;;-144.14;100.00
7075;BME280;3578;51.568;6.932;2023-08-30T12:40:51;51697.25;;;-144.14;100.00
7075;BME280;3578;51.568;6.932;2023-08-30T12:43:19;51675.22;;;-144.14;100.00
7075;BME280;3578;51.568;6.932;2023-08-30T12:45:47;51701.25;;;-144.14;100.00
7075;BME280;3578;51.568;6.932;2023-08-30T12:48:16;51669.22;;;-144.14;100.00
7075;BME280;3578;51.568;6.932;2023-08-30T12:50:44;51673.22;;;-144.14;100.00
7075;BME280;3578;51.568;6.932;2023-08-30T12:53:12;51667.22;;;-144.14;100.00
7075;BME280;3578;51.568;6.932;2023-08-30T12:55:39;51663.19;;;-144.14;100.00
7075;BME280;3578;51.568;6.932;2023-08-30T12:58:08;51665.22;;;-144.14;100.00